createdAt,value
2017-09-23T00:00:39.421Z,60.07
2017-09-23T00:03:10.579Z,60.06
2017-09-23T00:05:40.971Z,60.02
2017-09-23T00:08:11.998Z,59.84
2017-09-23T00:10:42.426Z,60.01
2017-09-23T00:13:12.840Z,59.91
2017-09-23T00:15:43.186Z,60.17
2017-09-23T00:18:14.145Z,59.84
2017-09-23T00:20:45.255Z,59.66
2017-09-23T00:23:21.865Z,59.50
2017-09-23T00:25:52.475Z,59.33
2017-09-23T00:28:23.026Z,59.37
2017-09-23T00:30:53.483Z,59.51
2017-09-23T00:33:26.117Z,59.61
2017-09-23T00:35:56.722Z,59.54
2017-09-23T00:38:27.642Z,59.44
2017-09-23T00:40:58.084Z,59.51
2017-09-23T00:43:29.051Z,59.42
2017-09-23T00:45:59.468Z,59.83
2017-09-23T00:48:31.457Z,60.50
2017-09-23T00:51:02.444Z,60.12
2017-09-23T00:53:33.259Z,60.09
2017-09-23T00:56:04.746Z,59.88
2017-09-23T00:58:35.291Z,59.74
2017-09-23T01:01:06.557Z,59.67
2017-09-23T01:03:39.006Z,59.68
2017-09-23T01:06:09.513Z,59.59
2017-09-23T01:08:40.011Z,59.54
2017-09-23T01:11:11.894Z,59.51
2017-09-23T01:13:43.822Z,59.58
2017-09-23T01:16:14.388Z,59.48
2017-09-23T01:18:44.848Z,59.49
2017-09-23T01:21:16.185Z,59.36
2017-09-23T01:23:48.449Z,59.21
2017-09-23T01:26:20.199Z,59.04
2017-09-23T01:28:51.319Z,58.92
2017-09-23T01:31:22.588Z,59.42
2017-09-23T01:33:53.686Z,59.10
2017-09-23T01:36:24.775Z,59.11
2017-09-23T01:38:57.062Z,59.11
2017-09-23T01:41:30.128Z,59.16
2017-09-23T01:44:03.156Z,59.12
2017-09-23T01:46:36.046Z,59.40
2017-09-23T01:49:07.726Z,59.42
2017-09-23T01:51:38.667Z,59.49
2017-09-23T01:54:09.596Z,59.26
2017-09-23T01:56:41.260Z,58.97
2017-09-23T01:59:13.400Z,58.98
2017-09-23T02:01:45.363Z,59.08
2017-09-23T02:04:16.624Z,59.10
2017-09-23T02:06:47.510Z,59.34
2017-09-23T02:09:18.051Z,59.27
2017-09-23T02:11:49.054Z,59.21
2017-09-23T02:14:20.113Z,59.29
2017-09-23T02:16:50.284Z,59.20
2017-09-23T02:19:21.218Z,59.50
2017-09-23T02:21:53.169Z,59.80
2017-09-23T02:24:24.939Z,59.81
2017-09-23T02:26:55.227Z,59.67
2017-09-23T02:29:26.172Z,59.55
2017-09-23T02:31:56.774Z,59.65
2017-09-23T02:34:27.026Z,60.46
2017-09-23T02:36:57.280Z,60.15
2017-09-23T02:39:28.228Z,59.95
2017-09-23T02:41:58.726Z,59.87
2017-09-23T02:44:30.468Z,59.93
2017-09-23T02:47:01.835Z,60.30
2017-09-23T02:49:32.069Z,60.72
2017-09-23T02:52:02.669Z,60.44
2017-09-23T02:54:33.124Z,60.31
2017-09-23T02:57:04.172Z,60.41
2017-09-23T02:59:35.235Z,60.84
2017-09-23T03:02:06.459Z,60.56
2017-09-23T03:04:38.924Z,60.44
2017-09-23T03:07:09.167Z,60.51
2017-09-23T03:09:40.276Z,60.90
2017-09-23T03:12:11.574Z,60.63
2017-09-23T03:14:42.418Z,60.37
2017-09-23T03:17:14.271Z,60.32
2017-09-23T03:19:45.948Z,60.27
2017-09-23T03:22:18.972Z,60.59
2017-09-23T03:24:51.279Z,60.41
2017-09-23T03:27:22.990Z,60.14
2017-09-23T03:29:54.464Z,60.33
2017-09-23T03:32:25.360Z,60.85
2017-09-23T03:34:57.128Z,62.01
2017-09-23T03:37:28.486Z,62.74
2017-09-23T03:40:00.741Z,63.57
2017-09-23T03:42:32.163Z,64.29
2017-09-23T03:45:05.422Z,63.80
2017-09-23T03:47:35.995Z,64.18
2017-09-23T03:50:07.361Z,63.84
2017-09-23T03:52:39.057Z,62.68
2017-09-23T03:55:16.925Z,62.37
2017-09-23T03:57:48.653Z,62.20
2017-09-23T04:00:19.698Z,62.66
2017-09-23T04:02:50.682Z,63.02
2017-09-23T04:05:21.700Z,62.00
2017-09-23T04:07:54.373Z,62.04
2017-09-23T04:10:25.564Z,61.57
2017-09-23T04:12:57.145Z,61.27
2017-09-23T04:15:27.992Z,61.21
2017-09-23T04:17:59.335Z,60.94
2017-09-23T04:20:30.180Z,61.19
2017-09-23T04:23:05.539Z,60.62
2017-09-23T04:25:37.507Z,60.32
2017-09-23T04:28:08.687Z,61.44
2017-09-23T04:30:40.816Z,60.81
2017-09-23T04:33:12.840Z,60.59
2017-09-23T04:35:43.948Z,60.57
2017-09-23T04:38:14.165Z,60.46
2017-09-23T04:40:44.339Z,60.43
2017-09-23T04:43:15.164Z,60.57
2017-09-23T04:45:46.545Z,61.01
2017-09-23T04:48:18.456Z,60.48
2017-09-23T04:50:49.332Z,60.32
2017-09-23T04:53:25.416Z,60.54
2017-09-23T04:55:57.213Z,61.10
2017-09-23T04:58:28.586Z,61.20
2017-09-23T05:00:59.396Z,60.96
2017-09-23T05:03:30.693Z,60.76
2017-09-23T05:06:02.471Z,60.64
2017-09-23T05:08:34.012Z,60.80
2017-09-23T05:11:06.475Z,61.07
2017-09-23T05:13:46.573Z,60.96
2017-09-23T05:16:36.928Z,60.86
2017-09-23T05:19:08.881Z,60.81
2017-09-23T05:26:31.811Z,60.62
2017-09-23T05:29:37.650Z,60.45
2017-09-23T05:32:16.016Z,60.33
2017-09-23T05:34:46.343Z,60.07
2017-09-23T05:37:25.149Z,60.50
2017-09-23T05:40:41.560Z,60.79
2017-09-23T05:43:22.729Z,61.09
2017-09-23T05:46:45.814Z,60.79
2017-09-23T05:49:17.805Z,60.51
2017-09-23T05:52:08.035Z,60.50
2017-09-23T05:54:42.299Z,60.23
2017-09-23T05:57:21.275Z,60.22
2017-09-23T06:00:21.233Z,60.53
2017-09-23T06:03:08.733Z,60.38
2017-09-23T06:06:03.776Z,60.01
2017-09-23T06:08:56.060Z,60.56
2017-09-23T06:11:37.187Z,60.66
2017-09-23T06:14:40.198Z,60.96
2017-09-23T06:19:40.460Z,61.00
2017-09-23T06:22:12.781Z,61.17
2017-09-23T06:24:50.477Z,61.10
2017-09-23T06:27:43.568Z,60.34
2017-09-23T06:30:14.715Z,59.98
2017-09-23T06:32:51.005Z,60.87
2017-09-23T06:35:26.868Z,62.41
2017-09-23T06:38:02.118Z,63.55
2017-09-23T06:40:35.304Z,63.15
2017-09-23T06:43:16.036Z,63.47
2017-09-23T06:46:03.576Z,62.38
2017-09-23T06:55:56.026Z,60.70
2017-09-23T07:01:57.861Z,58.17
2017-09-23T07:04:31.357Z,57.54
2017-09-23T07:07:06.713Z,56.95
2017-09-23T07:09:46.593Z,56.54
2017-09-23T07:12:24.195Z,55.76
2017-09-23T07:15:04.176Z,56.03
2017-09-23T07:17:43.143Z,55.45
2017-09-23T07:20:16.757Z,55.36
2017-09-23T07:23:08.925Z,54.71
2017-09-23T07:26:00.296Z,54.24
2017-09-23T07:28:37.731Z,53.76
2017-09-23T07:31:25.494Z,53.60
2017-09-23T07:34:10.561Z,52.93
2017-09-23T07:36:48.017Z,52.09
2017-09-23T07:39:31.037Z,51.62
2017-09-23T07:42:14.520Z,50.47
2017-09-23T07:44:53.368Z,54.91
2017-09-23T07:47:32.561Z,55.51
2017-09-23T07:50:05.136Z,58.07
2017-09-23T07:52:40.707Z,58.73
2017-09-23T07:55:16.046Z,56.13
2017-09-23T07:57:50.605Z,61.52
2017-09-23T08:00:30.264Z,57.09
2017-09-23T08:03:04.633Z,58.42
2017-09-23T08:05:37.345Z,57.99
2017-09-23T08:08:07.884Z,57.46
2017-09-23T08:10:40.585Z,57.09
2017-09-23T08:13:11.136Z,53.48
2017-09-23T08:15:42.423Z,52.95
2017-09-23T08:18:15.410Z,52.66
2017-09-23T08:20:46.186Z,54.40
2017-09-23T08:23:17.326Z,55.27
2017-09-23T08:25:50.864Z,54.87
2017-09-23T08:28:21.678Z,53.25
2017-09-23T08:30:51.844Z,56.62
2017-09-23T08:33:35.976Z,57.37
2017-09-23T08:39:27.948Z,55.16
2017-09-23T08:42:05.850Z,57.49
2017-09-23T08:44:49.069Z,55.97
2017-09-23T08:47:24.432Z,54.40
2017-09-23T08:50:05.684Z,52.29
2017-09-23T08:52:37.393Z,53.44
2017-09-23T08:55:12.274Z,53.91
2017-09-23T08:57:49.377Z,56.31
2017-09-23T09:00:21.989Z,55.14
2017-09-23T09:03:07.972Z,54.46
2017-09-23T09:05:40.349Z,52.01
2017-09-23T09:08:17.785Z,50.98
2017-09-23T09:10:55.147Z,49.29
2017-09-23T09:14:09.539Z,50.64
2017-09-23T09:16:47.477Z,51.37
2017-09-23T09:19:23.171Z,51.09
2017-09-23T09:27:07.106Z,48.15
2017-09-23T09:29:46.946Z,47.47
2017-09-23T09:32:19.984Z,47.66
2017-09-23T09:34:54.130Z,43.91
2017-09-23T09:37:29.095Z,42.63
2017-09-23T09:40:48.387Z,44.02
2017-09-23T09:43:28.868Z,43.94
2017-09-23T09:46:09.219Z,45.88
2017-09-23T09:48:43.646Z,44.80
2017-09-23T09:51:17.284Z,43.82
2017-09-23T09:54:00.352Z,45.61
2017-09-23T09:56:45.416Z,45.45
2017-09-23T09:59:30.570Z,46.52
2017-09-23T10:02:12.024Z,45.67
2017-09-23T10:04:43.333Z,48.21
2017-09-23T10:07:18.542Z,51.54
2017-09-23T10:09:51.331Z,49.67
2017-09-23T10:12:32.776Z,47.44
2017-09-23T10:15:09.657Z,51.55
2017-09-23T10:17:46.937Z,53.10
2017-09-23T10:20:22.528Z,55.84
2017-09-23T10:23:01.055Z,56.01
2017-09-23T10:25:59.517Z,55.30
2017-09-23T10:28:33.790Z,54.68
2017-09-23T10:33:47.164Z,53.09
2017-09-23T10:36:21.375Z,52.94
2017-09-23T10:39:15.403Z,54.58
2017-09-23T10:41:47.286Z,57.99
2017-09-23T10:44:19.071Z,55.93
2017-09-23T10:47:13.971Z,53.43
2017-09-23T10:49:46.416Z,52.65
2017-09-23T10:52:21.648Z,52.38
2017-09-23T10:54:54.005Z,52.26
2017-09-23T10:57:23.971Z,50.81
2017-09-23T10:59:56.561Z,53.47
2017-09-23T11:02:27.849Z,54.59
2017-09-23T11:04:59.090Z,52.11
2017-09-23T11:07:51.810Z,54.27
2017-09-23T11:10:23.807Z,53.51
2017-09-23T11:12:57.021Z,53.14
2017-09-23T11:15:37.701Z,50.68
2017-09-23T11:18:10.220Z,53.21
2017-09-23T11:20:51.166Z,53.36
2017-09-23T11:23:32.892Z,52.97
2017-09-23T11:26:47.256Z,50.80
2017-09-23T11:29:20.616Z,52.20
2017-09-23T11:31:54.199Z,54.29
2017-09-23T11:34:33.281Z,51.00
2017-09-23T11:37:25.465Z,48.32
2017-09-23T11:40:14.429Z,45.97
2017-09-23T11:45:27.557Z,48.85
2017-09-23T11:48:01.185Z,51.73
2017-09-23T11:50:37.690Z,51.91
2017-09-23T11:53:12.063Z,53.40
2017-09-23T11:55:53.237Z,53.34
2017-09-23T11:58:31.944Z,53.81
2017-09-23T12:01:05.871Z,55.25
2017-09-23T12:03:39.921Z,53.13
2017-09-23T12:06:16.468Z,54.24
2017-09-23T12:08:48.936Z,53.29
2017-09-23T12:11:21.551Z,52.23
2017-09-23T12:13:51.583Z,52.38
2017-09-23T12:16:24.257Z,53.41
2017-09-23T12:21:40.963Z,50.74
2017-09-23T12:24:14.423Z,51.23
2017-09-23T12:26:53.205Z,54.50
2017-09-23T12:29:26.029Z,52.31
2017-09-23T12:31:57.049Z,55.19
2017-09-23T12:34:42.361Z,53.38
2017-09-23T12:42:34.062Z,52.60
2017-09-23T12:45:13.093Z,52.94
2017-09-23T12:47:43.848Z,51.97
2017-09-23T12:54:28.406Z,48.54
2017-09-23T13:12:42.998Z,47.86
2017-09-23T13:15:39.685Z,42.16
2017-09-23T13:18:11.117Z,43.48
2017-09-23T13:21:01.287Z,45.43
2017-09-23T13:23:50.231Z,49.44
2017-09-23T13:26:21.848Z,49.11
2017-09-23T13:29:37.124Z,50.63
2017-09-23T13:32:41.232Z,49.88
2017-09-23T13:35:26.124Z,48.71
2017-09-23T13:38:03.602Z,47.98
2017-09-23T13:40:46.459Z,47.37
2017-09-23T13:43:28.359Z,47.50
2017-09-23T13:45:59.381Z,46.50
2017-09-23T13:48:30.412Z,46.22
2017-09-23T13:51:02.309Z,46.07
2017-09-23T13:53:34.513Z,45.70
2017-09-23T13:56:10.172Z,44.11
2017-09-23T13:58:49.235Z,44.46
2017-09-23T14:01:23.952Z,43.12
2017-09-23T14:04:54.734Z,43.53
2017-09-23T14:07:43.616Z,43.60
2017-09-23T14:10:20.868Z,39.75
2017-09-23T14:12:53.125Z,40.94
2017-09-23T14:15:27.291Z,40.78
2017-09-23T14:18:12.786Z,40.72
2017-09-23T14:20:46.067Z,39.83
2017-09-23T14:26:08.884Z,40.58
2017-09-23T14:28:44.396Z,43.62
2017-09-23T14:31:19.861Z,42.65
2017-09-23T14:33:55.514Z,45.84
2017-09-23T14:36:32.433Z,44.96
2017-09-23T14:39:15.930Z,45.25
2017-09-23T14:41:58.381Z,45.67
2017-09-23T14:47:24.298Z,45.52
2017-09-23T14:50:09.017Z,44.73
2017-09-23T14:52:55.095Z,45.15
2017-09-23T14:55:29.750Z,44.22
2017-09-23T14:58:09.364Z,43.99
2017-09-23T15:00:42.398Z,43.60
2017-09-23T15:03:26.785Z,43.28
2017-09-23T15:06:05.634Z,46.18
2017-09-23T15:08:53.383Z,47.31
2017-09-23T15:11:26.905Z,50.13
2017-09-23T15:14:07.112Z,49.24
2017-09-23T15:16:47.350Z,49.28
2017-09-23T15:22:12.035Z,50.37
2017-09-23T15:24:51.835Z,50.75
2017-09-23T15:28:12.355Z,52.08
2017-09-23T15:31:17.393Z,53.21
2017-09-23T15:33:53.710Z,52.40
2017-09-23T15:36:34.649Z,52.62
2017-09-23T15:41:54.323Z,53.27
2017-09-23T15:49:57.678Z,50.77
2017-09-23T15:55:20.555Z,51.64
2017-09-23T15:57:56.303Z,54.73
2017-09-23T17:48:46.880Z,61.85
2017-09-23T17:51:18.397Z,60.82
2017-09-23T17:54:00.630Z,60.40
2017-09-23T17:56:41.047Z,60.30
2017-09-23T17:59:13.797Z,59.23
2017-09-23T18:01:44.841Z,58.76
2017-09-23T18:04:16.228Z,58.71
2017-09-23T18:06:47.461Z,61.45
2017-09-23T18:09:23.657Z,62.02
2017-09-23T18:11:54.574Z,61.33
2017-09-23T18:14:29.504Z,63.29
2017-09-23T18:17:03.740Z,62.05
2017-09-23T18:19:40.770Z,62.13
2017-09-23T18:22:23.815Z,60.95
2017-09-23T18:25:01.850Z,60.47
2017-09-23T18:27:33.298Z,60.22
2017-09-23T18:30:05.575Z,59.37
2017-09-23T18:32:37.276Z,58.50
2017-09-23T18:35:10.850Z,58.01
2017-09-23T18:37:41.851Z,57.60
2017-09-23T18:40:19.919Z,57.61
2017-09-23T18:42:57.005Z,57.45
2017-09-23T18:45:33.913Z,57.36
2017-09-23T18:48:05.190Z,57.17
2017-09-23T18:50:39.155Z,57.13
2017-09-23T18:53:14.124Z,57.26
2017-09-23T18:55:53.924Z,57.25
2017-09-23T18:58:48.110Z,57.30
2017-09-23T19:01:19.167Z,57.40
2017-09-23T19:04:17.726Z,57.46
2017-09-23T19:06:48.916Z,57.85
2017-09-23T19:09:19.269Z,59.23
2017-09-23T19:11:52.631Z,58.85
2017-09-23T19:14:45.390Z,58.53
2017-09-23T19:17:17.170Z,58.37
2017-09-23T19:19:47.823Z,58.72
2017-09-23T19:22:30.315Z,58.85
2017-09-23T19:25:04.382Z,58.95
2017-09-23T19:27:34.765Z,58.99
2017-09-23T19:30:16.119Z,58.99
2017-09-23T19:32:52.332Z,59.23
2017-09-23T19:35:28.611Z,59.13
2017-09-23T19:38:09.069Z,58.94
2017-09-23T19:40:47.826Z,59.31
2017-09-23T19:43:24.155Z,60.15
2017-09-23T19:45:56.639Z,59.75
2017-09-23T19:48:30.824Z,59.35
2017-09-23T19:51:25.739Z,59.38
2017-09-23T19:54:11.164Z,59.31
2017-09-23T19:56:42.893Z,58.73
2017-09-23T19:59:29.925Z,58.94
2017-09-23T20:02:01.232Z,58.57
2017-09-23T20:04:38.739Z,59.30
2017-09-23T20:07:12.092Z,58.71
2017-09-23T20:09:49.869Z,59.04
2017-09-23T20:12:55.073Z,59.44
2017-09-23T20:15:29.475Z,60.73
2017-09-23T20:18:09.349Z,60.88
2017-09-23T20:23:14.035Z,61.28
2017-09-23T20:25:51.603Z,61.26
2017-09-23T20:28:23.442Z,61.50
2017-09-23T20:30:56.630Z,61.42
2017-09-23T20:33:30.648Z,61.37
2017-09-23T20:38:50.106Z,61.45
2017-09-23T20:41:24.342Z,61.49
2017-09-23T20:43:58.636Z,61.39
2017-09-23T20:46:36.637Z,61.29
2017-09-23T20:49:10.906Z,61.08
2017-09-23T20:51:42.800Z,60.57
2017-09-23T20:54:16.278Z,60.89
2017-09-23T20:56:49.874Z,60.19
2017-09-23T20:59:23.059Z,59.50
2017-09-23T21:01:54.968Z,59.67
2017-09-23T21:04:30.773Z,59.67
2017-09-23T21:07:02.648Z,59.37
2017-09-23T21:09:34.327Z,58.74
2017-09-23T21:12:07.152Z,59.85
2017-09-23T21:14:39.643Z,61.68
2017-09-23T21:17:12.784Z,61.19
2017-09-23T21:19:44.060Z,61.35
2017-09-23T21:22:18.703Z,61.18
2017-09-23T21:24:52.228Z,61.04
2017-09-23T21:27:25.858Z,61.09
2017-09-23T21:30:03.962Z,61.00
2017-09-23T21:32:37.460Z,61.03
2017-09-23T21:35:09.591Z,60.96
2017-09-23T21:37:42.671Z,61.37
2017-09-23T21:40:14.780Z,61.19
2017-09-23T21:42:46.640Z,60.93
2017-09-23T21:45:18.403Z,60.70
2017-09-23T21:47:50.348Z,60.97
2017-09-23T21:50:28.969Z,60.87
2017-09-23T21:53:03.232Z,60.64
2017-09-23T21:55:47.197Z,60.47
2017-09-23T21:58:18.795Z,60.64
2017-09-23T22:00:51.046Z,60.79
2017-09-23T22:03:21.465Z,60.83
2017-09-23T22:05:52.825Z,60.73
2017-09-23T22:08:25.868Z,60.51
2017-09-23T22:10:59.409Z,60.21
2017-09-23T22:13:34.937Z,61.15
2017-09-23T22:16:07.391Z,60.55
2017-09-23T22:18:40.300Z,60.29
2017-09-23T22:21:13.817Z,60.25
2017-09-23T22:23:47.786Z,60.25
2017-09-23T22:26:20.071Z,59.88
2017-09-23T22:28:51.687Z,59.68
2017-09-23T22:31:23.463Z,59.95
2017-09-23T22:33:57.452Z,59.80
2017-09-23T22:36:29.090Z,59.63
2017-09-23T22:39:01.328Z,59.59
2017-09-23T22:41:33.481Z,59.64
2017-09-23T22:44:08.976Z,59.31
2017-09-23T22:46:40.872Z,59.41
2017-09-23T22:49:14.000Z,59.58
2017-09-23T22:51:48.235Z,59.29
2017-09-23T22:54:22.637Z,59.24
2017-09-23T22:56:55.862Z,59.25
2017-09-23T22:59:29.472Z,59.27
2017-09-23T23:02:01.544Z,59.52
2017-09-23T23:04:34.756Z,59.25
2017-09-23T23:07:08.448Z,59.05
2017-09-23T23:09:41.632Z,59.11
2017-09-23T23:12:13.625Z,59.90
2017-09-23T23:14:44.886Z,59.53
2017-09-23T23:17:15.861Z,59.31
2017-09-23T23:19:47.015Z,59.42
2017-09-23T23:22:17.994Z,59.68
2017-09-23T23:24:58.049Z,60.30
2017-09-23T23:27:29.027Z,60.22
2017-09-23T23:30:01.194Z,60.13
2017-09-23T23:32:33.911Z,60.12
2017-09-23T23:35:05.626Z,60.45
2017-09-23T23:37:36.759Z,60.48
2017-09-23T23:40:09.522Z,60.82
2017-09-23T23:42:40.424Z,60.57
2017-09-23T23:45:14.238Z,60.91
2017-09-23T23:47:44.716Z,61.08
2017-09-23T23:50:16.262Z,61.23
2017-09-23T23:53:13.111Z,61.33
2017-09-23T23:55:48.990Z,60.64
2017-09-23T23:58:51.931Z,60.06
